Time;durP1;ratioP1;P1;durP2;ratioP2;P2;SDS_P1;SDS_P2;PMS_P1;PMS_P2;Temp;Humidity;BMP_temperature;BMP_pressure;BME280_temperature;BME280_humidity;BME280_pressure;Samples;Min_cycle;Max_cycle;Signal;HPM_P1;HPM_P2
2023/12/29 00:00:28;;;;;;;12.60;3.55;;;9.50;99.90;;;;;;4881390;29;20131;-92
2023/12/29 00:03:06;;;;;;;14.07;2.72;;;9.50;99.90;;;;;;4882085;29;20147;-92
2023/12/29 00:05:47;;;;;;;14.80;3.03;;;10.80;99.90;;;;;;4881708;29;20060;-90
2023/12/29 00:08:13;;;;;;;16.80;3.40;;;9.60;99.90;;;;;;4881301;29;20043;-92
2023/12/29 00:10:41;;;;;;;12.93;3.03;;;10.80;99.90;;;;;;4881817;29;20056;-93
2023/12/29 00:13:22;;;;;;;12.35;3.25;;;10.60;99.90;;;;;;4882208;29;20045;-91
2023/12/29 00:15:51;;;;;;;11.13;3.13;;;8.70;99.90;;;;;;4893162;29;20592;-90
2023/12/29 00:18:17;;;;;;;11.52;2.75;;;9.40;99.90;;;;;;4886126;29;20057;-90
2023/12/29 00:20:51;;;;;;;12.20;3.30;;;10.40;99.90;;;;;;4881687;29;20049;-91
2023/12/29 00:23:17;;;;;;;14.32;3.08;;;9.70;99.90;;;;;;4884412;29;20059;-92
2023/12/29 00:25:46;;;;;;;13.32;3.33;;;9.50;99.90;;;;;;4892309;29;20072;-91
2023/12/29 00:28:17;;;;;;;12.27;2.97;;;9.40;99.90;;;;;;4881846;29;20048;-92
2023/12/29 00:31:01;;;;;;;14.43;2.70;;;10.90;99.90;;;;;;4881482;29;20049;-92
2023/12/29 00:33:53;;;;;;;11.40;2.88;;;10.60;99.90;;;;;;4882026;29;20057;-91
2023/12/29 00:36:24;;;;;;;14.82;3.20;;;9.40;99.90;;;;;;4890910;29;20056;-91
2023/12/29 00:38:50;;;;;;;15.77;3.47;;;9.40;99.90;;;;;;4900253;29;20139;-91
2023/12/29 00:44:52;;;;;;;11.98;3.13;;;9.30;99.90;;;;;;4899596;29;20052;-90
2023/12/29 00:47:24;;;;;;;14.93;3.35;;;10.70;99.90;;;;;;4900516;29;20408;-91
2023/12/29 00:57:11;;;;;;;14.25;3.10;;;9.20;99.90;;;;;;5210093;23;20108;-90
2023/12/29 00:59:40;;;;;;;13.27;3.33;;;9.00;99.90;;;;;;4862735;29;20147;-91
2023/12/29 01:02:06;;;;;;;15.10;3.20;;;9.00;99.90;;;;;;4862192;29;20509;-91
2023/12/29 01:04:32;;;;;;;14.40;3.40;;;10.20;99.90;;;;;;4861672;29;20521;-92
2023/12/29 01:07:00;;;;;;;13.57;3.42;;;10.00;99.90;;;;;;4862048;29;20057;-90
2023/12/29 01:09:41;;;;;;;14.82;3.53;;;8.90;99.90;;;;;;4862782;29;20173;-91
2023/12/29 01:12:07;;;;;;;14.18;3.30;;;10.40;99.90;;;;;;4860878;29;20525;-91
2023/12/29 01:14:36;;;;;;;13.23;3.45;;;10.30;99.90;;;;;;4880868;29;20084;-90
2023/12/29 01:17:14;;;;;;;14.77;3.78;;;10.30;99.90;;;;;;4882813;29;20052;-90
2023/12/29 01:19:39;;;;;;;14.32;3.75;;;10.20;99.90;;;;;;4880897;29;20044;-88
2023/12/29 01:22:17;;;;;;;16.70;3.78;;;10.30;99.90;;;;;;4879594;29;20040;-88
2023/12/29 01:24:43;;;;;;;17.55;3.35;;;9.10;99.90;;;;;;4882395;29;20509;-88
2023/12/29 01:27:09;;;;;;;18.92;3.90;;;9.90;99.90;;;;;;4880293;29;20088;-89
2023/12/29 01:29:40;;;;;;;17.63;4.03;;;10.10;99.90;;;;;;4880771;29;20044;-89
2023/12/29 01:32:07;;;;;;;17.93;4.60;;;8.90;99.90;;;;;;4880092;29;20040;-88
2023/12/29 01:34:36;;;;;;;18.52;3.70;;;10.40;99.90;;;;;;4880562;29;20052;-89
2023/12/29 01:37:05;;;;;;;12.43;3.45;;;9.90;99.90;;;;;;4880799;29;20049;-88
2023/12/29 01:39:31;;;;;;;17.52;4.03;;;9.90;99.90;;;;;;4879692;29;20420;-88
2023/12/29 01:42:08;;;;;;;18.63;4.47;;;9.80;99.90;;;;;;4880148;29;20048;-88
2023/12/29 01:44:44;;;;;;;15.52;3.92;;;10.20;99.90;;;;;;4880714;29;20132;-89
2023/12/29 01:47:16;;;;;;;13.70;3.80;;;10.20;99.90;;;;;;4879435;29;20076;-89
2023/12/29 01:49:45;;;;;;;15.95;3.92;;;10.60;99.90;;;;;;4880609;29;20501;-89
2023/12/29 01:52:20;;;;;;;14.98;3.35;;;10.30;99.90;;;;;;4879540;29;20045;-90
2023/12/29 01:54:50;;;;;;;15.45;3.42;;;10.40;99.90;;;;;;4880982;29;20090;-90
2023/12/29 01:57:35;;;;;;;14.27;3.60;;;10.70;99.90;;;;;;4880898;29;20096;-90
2023/12/29 02:00:26;;;;;;;13.93;3.42;;;10.40;99.90;;;;;;4883745;29;20044;-89
2023/12/29 02:02:52;;;;;;;14.23;3.67;;;8.80;99.90;;;;;;4883465;29;20199;-90
2023/12/29 02:05:20;;;;;;;10.50;3.20;;;9.60;99.90;;;;;;4880592;29;20497;-90
2023/12/29 02:07:46;;;;;;;16.05;4.00;;;;;;;;;;4896081;29;20087;-90
2023/12/29 02:10:21;;;;;;;13.10;3.15;;;9.10;99.90;;;;;;4881776;29;20494;-90
2023/12/29 02:12:49;;;;;;;14.48;3.58;;;9.10;99.90;;;;;;4881988;29;20072;-89
2023/12/29 02:15:15;;;;;;;11.13;3.60;;;10.30;99.90;;;;;;4895036;29;20100;-89
2023/12/29 02:17:46;;;;;;;17.20;4.20;;;9.10;99.90;;;;;;4895872;29;20052;-90
2023/12/29 02:20:13;;;;;;;14.20;3.53;;;9.10;99.90;;;;;;4879346;29;20055;-91
2023/12/29 02:22:38;;;;;;;11.40;3.90;;;9.40;99.90;;;;;;4880365;29;20064;-90
2023/12/29 02:25:11;;;;;;;14.10;3.50;;;10.50;99.90;;;;;;4882973;29;20045;-90
2023/12/29 02:27:45;;;;;;;12.70;3.33;;;9.00;99.90;;;;;;4883280;29;20096;-90
2023/12/29 02:30:36;;;;;;;14.65;3.40;;;10.70;99.90;;;;;;4883424;29;20533;-90
2023/12/29 02:33:16;;;;;;;13.27;3.50;;;9.10;99.90;;;;;;4883521;29;20056;-90
2023/12/29 02:35:44;;;;;;;12.25;3.13;;;10.40;99.90;;;;;;4882892;29;20048;-91
2023/12/29 02:38:11;;;;;;;12.43;3.20;;;8.90;99.90;;;;;;4882923;29;20142;-90
2023/12/29 02:40:37;;;;;;;14.35;3.20;;;9.20;99.90;;;;;;4888538;29;20044;-91
2023/12/29 02:43:20;;;;;;;14.38;3.30;;;10.30;99.90;;;;;;4900216;29;20044;-91
2023/12/29 02:45:46;;;;;;;12.80;3.08;;;9.10;99.90;;;;;;4894082;29;20052;-91
2023/12/29 02:48:12;;;;;;;12.73;3.25;;;9.20;99.90;;;;;;4888127;29;20053;-91
2023/12/29 02:50:55;;;;;;;13.13;3.00;;;10.80;99.90;;;;;;4884185;29;20048;-92
2023/12/29 02:53:21;;;;;;;12.17;3.03;;;8.80;99.90;;;;;;4886041;29;20052;-91
2023/12/29 02:55:47;;;;;;;13.82;3.08;;;10.70;99.90;;;;;;4882911;29;20044;-90
2023/12/29 02:58:27;;;;;;;12.80;3.35;;;10.50;99.90;;;;;;4882729;29;20057;-90
2023/12/29 03:00:59;;;;;;;11.88;3.00;;;9.50;99.90;;;;;;4882133;29;20108;-92
2023/12/29 03:03:43;;;;;;;18.02;3.13;;;10.30;99.90;;;;;;4881684;29;20040;-91
2023/12/29 03:06:15;;;;;;;;;;;9.50;99.90;;;;;;4883139;29;20044;-94
2023/12/29 03:08:41;;;;;;;11.13;2.92;;;9.50;99.90;;;;;;4882323;29;19927;-93
2023/12/29 03:11:09;;;;;;;10.90;2.67;;;10.80;99.90;;;;;;4881397;29;20052;-91
2023/12/29 03:13:34;;;;;;;11.35;2.63;;;9.70;99.90;;;;;;4883915;29;20037;-90
2023/12/29 03:16:06;;;;;;;12.73;2.85;;;11.30;99.90;;;;;;4883459;29;20438;-92
2023/12/29 03:18:31;;;;;;;9.95;2.33;;;9.80;99.90;;;;;;4882816;29;20397;-93
2023/12/29 03:21:07;;;;;;;11.82;2.50;;;11.30;99.90;;;;;;4882703;29;20048;-92
2023/12/29 03:23:34;;;;;;;14.25;2.75;;;9.70;99.90;;;;;;4882327;29;20135;-92
2023/12/29 03:26:12;;;;;;;11.10;2.80;;;9.70;99.90;;;;;;4868713;29;20061;-90
2023/12/29 03:28:50;;;;;;;11.90;2.90;;;10.40;99.90;;;;;;4883036;29;20405;-91
2023/12/29 03:31:16;;;;;;;10.70;2.88;;;11.00;99.90;;;;;;4882599;29;20164;-90
2023/12/29 03:33:42;;;;;;;13.98;3.10;;;10.30;99.90;;;;;;4890756;29;20079;-90
2023/12/29 03:36:09;;;;;;;11.38;3.08;;;9.60;99.90;;;;;;4887934;29;20084;-91
2023/12/29 03:38:36;;;;;;;10.43;3.17;;;10.70;99.90;;;;;;4893197;29;20084;-90
2023/12/29 03:41:08;;;;;;;11.23;2.88;;;10.50;99.90;;;;;;4865016;29;20054;-92
2023/12/29 03:43:34;;;;;;;12.52;2.80;;;11.00;99.90;;;;;;4853333;29;20069;-92
2023/12/29 03:46:26;;;;;;;11.65;3.00;;;10.20;99.90;;;;;;4857687;29;20113;-92
2023/12/29 03:48:51;;;;;;;12.40;3.22;;;10.90;99.90;;;;;;4844309;29;20068;-91
2023/12/29 03:51:18;;;;;;;14.17;3.73;;;10.80;99.90;;;;;;4844792;29;20054;-93
2023/12/29 03:53:44;;;;;;;10.85;2.85;;;10.70;99.90;;;;;;4845332;29;20084;-94
2023/12/29 03:56:28;;;;;;;12.30;2.80;;;10.90;99.90;;;;;;4848474;29;20053;-94
2023/12/29 03:58:53;;;;;;;11.85;3.45;;;10.00;99.90;;;;;;4843147;29;20061;-92
2023/12/29 04:01:19;;;;;;;10.85;2.85;;;10.30;99.90;;;;;;4844697;29;20046;-93
2023/12/29 04:03:55;;;;;;;14.77;3.25;;;10.50;99.90;;;;;;4844372;29;20144;-93
2023/12/29 04:06:20;;;;;;;13.57;3.10;;;9.40;99.90;;;;;;4843595;29;20518;-93
2023/12/29 04:08:52;;;;;;;13.07;3.10;;;10.60;99.90;;;;;;4843473;29;20124;-93
2023/12/29 04:11:17;;;;;;;11.30;2.97;;;9.00;99.90;;;;;;4852481;29;20569;-93
2023/12/29 04:13:43;;;;;;;15.03;3.20;;;10.80;99.90;;;;;;4881939;29;20140;-94
2023/12/29 04:16:12;;;;;;;12.40;3.00;;;10.40;99.90;;;;;;4882068;29;20096;-90
2023/12/29 04:18:50;;;;;;;14.70;3.70;;;11.00;99.90;;;;;;4881993;29;20509;-92
2023/12/29 04:21:21;;;;;;;16.57;3.43;;;10.30;99.90;;;;;;4884407;29;20405;-90
2023/12/29 04:23:47;;;;;;;14.80;3.30;;;10.70;99.90;;;;;;4883783;29;20139;-91
2023/12/29 04:26:28;;;;;;;14.25;3.10;;;9.80;99.90;;;;;;4884122;29;20119;-91
2023/12/29 04:29:26;;;;;;;13.00;3.53;;;10.70;99.90;;;;;;4883993;29;20084;-92
2023/12/29 04:31:52;;;;;;;16.00;3.40;;;10.70;99.90;;;;;;4851930;29;20057;-93
2023/12/29 04:34:17;;;;;;;13.90;2.95;;;9.40;99.90;;;;;;4882083;29;20131;-91
2023/12/29 04:36:43;;;;;;;16.58;3.22;;;10.80;99.90;;;;;;4881688;29;20124;-91
2023/12/29 04:39:09;;;;;;;16.40;3.58;;;10.50;99.90;;;;;;4881240;29;20079;-90
2023/12/29 04:41:38;;;;;;;18.13;3.20;;;9.60;99.90;;;;;;4881404;29;20048;-91
2023/12/29 04:44:06;;;;;;;16.90;3.60;;;9.20;99.90;;;;;;4881819;29;20052;-90
2023/12/29 04:46:44;;;;;;;15.33;2.87;;;10.60;99.90;;;;;;4881694;29;20437;-92
2023/12/29 04:49:22;;;;;;;13.03;2.60;;;10.90;99.90;;;;;;4881853;29;20087;-93
2023/12/29 04:51:59;;;;;;;17.77;3.33;;;10.20;99.90;;;;;;4882902;29;20051;-93
2023/12/29 04:54:25;;;;;;;15.20;3.07;;;10.50;99.90;;;;;;4881811;29;20051;-93
2023/12/29 04:57:42;;;;;;;14.40;2.90;;;10.50;99.90;;;;;;4881898;29;20048;-92
2023/12/29 05:00:08;;;;;;;17.73;3.67;;;9.50;99.90;;;;;;4881109;29;20504;-92
2023/12/29 05:02:43;;;;;;;16.08;2.67;;;9.30;99.90;;;;;;4860595;29;20056;-92
2023/12/29 05:05:24;;;;;;;12.80;2.30;;;9.40;99.90;;;;;;4845190;29;20498;-92
2023/12/29 05:08:05;;;;;;;13.47;2.83;;;9.60;99.90;;;;;;4844513;29;20072;-93
2023/12/29 05:10:49;;;;;;;12.60;2.60;;;9.40;99.90;;;;;;4844472;29;20045;-93
2023/12/29 05:13:35;;;;;;;12.80;2.40;;;10.80;99.90;;;;;;4844422;29;20059;-93
2023/12/29 05:16:05;;;;;;;12.60;3.42;;;11.00;99.90;;;;;;4844158;29;20482;-91
2023/12/29 05:18:37;;;;;;;16.73;3.33;;;9.40;99.90;;;;;;4844881;29;20049;-92
2023/12/29 05:21:03;;;;;;;16.30;2.80;;;9.40;99.90;;;;;;4846564;29;20049;-93
2023/12/29 05:23:34;;;;;;;18.15;3.75;;;9.30;99.90;;;;;;4847978;29;20045;-92
2023/12/29 05:26:06;;;;;;;14.77;3.20;;;11.10;99.90;;;;;;4875168;29;20105;-92
2023/12/29 05:28:32;;;;;;;17.80;3.15;;;8.70;99.90;;;;;;4856241;29;20140;-92
2023/12/29 05:31:09;;;;;;;13.53;2.83;;;11.20;99.90;;;;;;4847400;29;20053;-92
2023/12/29 05:33:35;;;;;;;17.93;3.30;;;9.30;99.90;;;;;;4855180;29;20041;-93
2023/12/29 05:36:16;;;;;;;15.57;3.25;;;10.30;99.90;;;;;;4847595;29;20085;-92
2023/12/29 05:38:45;;;;;;;17.27;3.35;;;9.40;99.90;;;;;;4854203;29;20041;-90
2023/12/29 05:41:13;;;;;;;15.32;3.53;;;9.50;99.90;;;;;;4867668;29;20057;-94
2023/12/29 05:43:39;;;;;;;19.42;3.45;;;9.50;99.90;;;;;;4861455;29;20053;-92
2023/12/29 05:46:12;;;;;;;17.63;4.10;;;9.40;99.90;;;;;;4850150;29;20049;-93
2023/12/29 05:48:41;;;;;;;19.98;3.30;;;9.30;99.90;;;;;;4848855;29;20109;-93
2023/12/29 05:51:10;;;;;;;16.30;3.53;;;9.40;99.90;;;;;;4847633;29;20042;-92
2023/12/29 05:53:36;;;;;;;12.70;2.90;;;9.70;99.90;;;;;;4846194;29;20117;-92
2023/12/29 05:56:05;;;;;;;15.35;3.47;;;9.30;99.90;;;;;;4848658;29;20045;-93
2023/12/29 06:02:26;;;;;;;19.98;3.55;;;8.30;99.90;;;;;;4866315;29;20086;-93
2023/12/29 06:05:03;;;;;;;19.20;3.93;;;9.20;99.90;;;;;;4848548;29;20061;-96
2023/12/29 06:07:28;;;;;;;17.07;3.10;;;9.30;99.90;;;;;;4848100;29;20430;-92
2023/12/29 06:09:54;;;;;;;12.97;2.67;;;9.30;99.90;;;;;;4848596;29;20132;-91
2023/12/29 06:12:32;;;;;;;14.25;2.80;;;9.30;99.90;;;;;;4863870;29;20050;-93
2023/12/29 06:15:02;;;;;;;18.92;3.08;;;9.30;99.90;;;;;;4848159;29;20050;-93
2023/12/29 06:17:30;;;;;;;19.15;3.50;;;9.30;99.90;;;;;;4849477;29;20045;-93
2023/12/29 06:19:56;;;;;;;15.65;3.17;;;9.30;99.90;;;;;;4854269;29;20048;-92
2023/12/29 06:22:22;;;;;;;14.38;2.95;;;9.40;99.90;;;;;;4862807;29;20490;-93
2023/12/29 06:24:47;;;;;;;15.67;3.43;;;9.40;99.90;;;;;;4869045;29;20049;-91
2023/12/29 06:27:19;;;;;;;13.90;3.20;;;9.40;99.90;;;;;;4865794;29;20494;-95
2023/12/29 06:29:44;;;;;;;17.33;2.93;;;9.40;99.90;;;;;;4867330;29;20132;-92
2023/12/29 06:32:13;;;;;;;16.27;3.50;;;9.50;99.90;;;;;;4847568;29;20142;-92
2023/12/29 06:34:40;;;;;;;15.23;3.20;;;9.40;99.90;;;;;;4847092;29;20037;-91
2023/12/29 06:37:06;;;;;;;13.60;2.83;;;9.40;99.90;;;;;;4847259;29;20056;-93
2023/12/29 06:39:47;;;;;;;17.85;3.40;;;9.40;99.90;;;;;;4847171;29;20045;-93
2023/12/29 06:42:12;;;;;;;14.75;3.05;;;9.10;99.90;;;;;;4847376;29;20388;-92
2023/12/29 06:44:39;;;;;;;12.18;2.75;;;9.40;99.90;;;;;;4848023;29;20093;-93
2023/12/29 06:47:20;;;;;;;15.43;3.40;;;9.40;99.90;;;;;;4847665;29;20049;-94
2023/12/29 06:49:57;;;;;;;11.93;2.92;;;9.30;99.90;;;;;;4846995;29;20092;-93
2023/12/29 06:52:33;;;;;;;;;;;;;;;;;;;;;
2023/12/29 06:55:25;;;;;;;14.85;3.30;;;9.30;99.90;;;;;;4900264;29;20421;-93
2023/12/29 06:57:54;;;;;;;18.70;3.92;;;9.20;99.90;;;;;;4902130;29;20537;-92
2023/12/29 07:00:20;;;;;;;20.65;3.17;;;9.30;99.90;;;;;;4899961;29;20052;-90
2023/12/29 07:02:51;;;;;;;20.75;3.85;;;9.30;99.90;;;;;;4887273;29;20214;-94
2023/12/29 07:05:27;;;;;;;15.60;3.20;;;9.20;99.90;;;;;;4888240;29;20055;-96
2023/12/29 07:08:08;;;;;;;16.50;3.40;;;9.20;99.90;;;;;;4888504;29;20061;-91
2023/12/29 07:10:49;;;;;;;22.92;4.20;;;9.20;99.90;;;;;;4867079;29;20498;-92
2023/12/29 07:13:22;;;;;;;16.48;3.20;;;9.30;99.90;;;;;;4878852;29;20053;-92
2023/12/29 07:15:48;;;;;;;20.58;3.55;;;9.30;99.90;;;;;;4879698;29;20109;-90
2023/12/29 07:18:28;;;;;;;17.98;3.20;;;9.20;99.90;;;;;;4879432;29;20061;-87
2023/12/29 07:20:54;;;;;;;21.63;3.92;;;9.40;99.90;;;;;;4864026;29;20057;-88
2023/12/29 07:23:20;;;;;;;19.35;2.85;;;9.10;99.90;;;;;;4864809;29;20048;-88
2023/12/29 07:25:47;;;;;;;18.63;3.47;;;9.10;99.90;;;;;;4867880;29;20471;-88
2023/12/29 07:28:12;;;;;;;21.15;3.20;;;9.10;99.90;;;;;;4866013;29;20100;-86
2023/12/29 07:30:38;;;;;;;16.67;3.22;;;9.00;99.90;;;;;;4880061;29;20068;-84
2023/12/29 07:33:04;;;;;;;18.85;2.90;;;9.00;99.90;;;;;;4879569;29;20125;-83
2023/12/29 07:35:30;;;;;;;15.88;2.80;;;9.00;99.90;;;;;;4880374;29;20049;-82
2023/12/29 07:37:56;;;;;;;17.77;3.65;;;9.00;99.90;;;;;;4879508;29;20055;-83
2023/12/29 07:40:22;;;;;;;16.65;3.40;;;9.00;99.90;;;;;;4872833;29;20044;-82
2023/12/29 07:42:50;;;;;;;17.35;3.30;;;9.10;99.90;;;;;;4882071;29;20053;-82
2023/12/29 07:45:25;;;;;;;11.70;2.60;;;9.00;99.90;;;;;;4881207;29;20052;-83
2023/12/29 07:47:50;;;;;;;13.70;2.47;;;9.10;99.90;;;;;;4899241;29;20077;-82
2023/12/29 07:50:16;;;;;;;15.48;3.95;;;9.00;99.90;;;;;;4880780;29;20052;-82
2023/12/29 07:52:56;;;;;;;16.20;3.38;;;9.10;99.90;;;;;;4896638;29;20104;-89
2023/12/29 07:55:21;;;;;;;13.00;2.78;;;9.20;99.90;;;;;;4879438;29;20060;-87
2023/12/29 07:57:50;;;;;;;18.38;3.15;;;8.90;99.90;;;;;;4880442;29;20044;-84
2023/12/29 08:00:16;;;;;;;14.07;3.00;;;9.30;99.90;;;;;;4880666;29;20040;-84
2023/12/29 08:02:41;;;;;;;17.00;3.67;;;8.90;99.90;;;;;;4880447;29;20601;-84
2023/12/29 08:05:10;;;;;;;17.48;3.40;;;8.90;99.90;;;;;;4887718;29;20064;-84
2023/12/29 08:07:37;;;;;;;19.60;3.43;;;10.20;99.90;;;;;;4926698;23;20153;-84
2023/12/29 08:10:09;;;;;;;17.40;3.10;;;10.20;99.90;;;;;;4879611;29;20059;-84
2023/12/29 08:12:35;;;;;;;13.37;2.67;;;8.90;99.90;;;;;;4877186;29;20045;-84
2023/12/29 08:15:05;;;;;;;14.30;2.90;;;8.90;99.90;;;;;;4866335;29;20052;-84
2023/12/29 08:17:31;;;;;;;19.42;5.38;;;8.90;99.90;;;;;;4881010;29;20532;-85
2023/12/29 08:20:26;;;;;;;16.98;7.38;;;10.30;99.90;;;;;;4879869;29;20044;-88
2023/12/29 08:23:07;;;;;;;17.00;5.28;;;9.00;99.90;;;;;;4880179;29;20152;-84
2023/12/29 08:25:39;;;;;;;14.10;2.67;;;10.50;99.90;;;;;;4862345;29;20104;-84
2023/12/29 08:28:14;;;;;;;12.77;3.47;;;10.70;99.90;;;;;;4866651;29;20446;-84
2023/12/29 08:30:40;;;;;;;13.88;4.07;;;9.70;99.90;;;;;;4878088;29;20048;-87
2023/12/29 08:33:06;;;;;;;17.67;3.95;;;9.00;99.90;;;;;;4896897;29;20045;-86
2023/12/29 08:35:37;;;;;;;18.17;4.50;;;9.20;99.90;;;;;;4889107;29;20048;-85
2023/12/29 08:38:03;;;;;;;18.27;3.38;;;10.10;99.90;;;;;;4892920;29;20107;-85
2023/12/29 08:40:36;;;;;;;15.88;3.33;;;9.00;99.90;;;;;;4889432;29;20089;-86
2023/12/29 08:43:02;;;;;;;19.50;3.45;;;10.60;99.90;;;;;;4879549;29;20048;-85
2023/12/29 08:45:41;;;;;;;18.15;3.65;;;8.90;99.90;;;;;;4881975;29;20494;-84
2023/12/29 08:48:07;;;;;;;18.67;4.45;;;8.40;99.90;;;;;;4878061;29;20037;-84
2023/12/29 08:50:49;;;;;;;16.30;3.42;;;8.90;99.90;;;;;;4880997;29;20135;-84
2023/12/29 08:53:16;;;;;;;14.98;4.00;;;9.00;99.90;;;;;;4880822;29;20052;-84
2023/12/29 08:55:42;;;;;;;21.50;4.07;;;9.00;99.90;;;;;;4880674;29;20053;-85
2023/12/29 08:58:08;;;;;;;14.77;4.60;;;10.50;99.90;;;;;;4880366;29;20112;-85
2023/12/29 09:00:33;;;;;;;15.93;4.45;;;9.00;99.90;;;;;;4881713;29;20048;-85
2023/12/29 09:03:11;;;;;;;13.32;4.07;;;9.00;99.90;;;;;;4880457;29;20040;-84
2023/12/29 09:05:37;;;;;;;9.95;3.13;;;9.20;99.90;;;;;;4881541;29;20465;-84
2023/12/29 09:08:03;;;;;;;17.15;3.03;;;10.40;99.90;;;;;;4879672;29;20044;-85
2023/12/29 09:10:30;;;;;;;16.30;3.20;;;9.10;99.90;;;;;;4881422;29;20066;-84
2023/12/29 09:13:05;;;;;;;12.53;2.77;;;10.20;99.90;;;;;;4879905;29;20045;-84
2023/12/29 09:15:46;;;;;;;11.25;3.08;;;9.30;99.90;;;;;;4880320;29;20138;-84
2023/12/29 09:18:21;;;;;;;11.88;2.92;;;9.40;99.90;;;;;;4881315;29;20420;-85
2023/12/29 09:20:59;;;;;;;14.20;2.60;;;10.20;99.90;;;;;;4880627;29;20390;-84
2023/12/29 09:23:27;;;;;;;9.25;2.38;;;9.30;99.90;;;;;;4878927;29;20044;-85
2023/12/29 09:26:02;;;;;;;14.82;3.50;;;9.30;99.90;;;;;;4880713;29;20111;-85
2023/12/29 09:28:28;;;;;;;11.75;2.40;;;9.50;99.90;;;;;;4896618;29;20454;-85
2023/12/29 09:31:25;;;;;;;8.73;2.50;;;10.60;99.90;;;;;;4878931;29;20048;-86
2023/12/29 09:34:12;;;;;;;10.48;2.72;;;9.60;99.90;;;;;;4881714;29;20056;-85
2023/12/29 09:36:38;;;;;;;11.70;2.40;;;8.80;99.90;;;;;;4883481;29;20049;-85
2023/12/29 09:39:03;;;;;;;11.05;2.30;;;11.00;99.90;;;;;;4868487;29;20055;-85
2023/12/29 09:45:07;;;;;;;8.15;2.30;;;11.10;99.90;;;;;;4880211;29;20060;-85
2023/12/29 09:47:41;;;;;;;12.32;2.72;;;10.40;99.90;;;;;;4883746;29;20056;-85
2023/12/29 09:50:12;;;;;;;10.82;2.20;;;10.40;99.90;;;;;;4883641;29;20085;-85
2023/12/29 09:52:50;;;;;;;7.68;2.60;;;10.70;99.90;;;;;;4883462;29;20057;-86
2023/12/29 09:55:17;;;;;;;11.85;2.55;;;10.30;99.90;;;;;;4883584;29;20100;-83
2023/12/29 09:57:43;;;;;;;10.88;2.47;;;10.60;99.90;;;;;;4883328;29;20066;-84
2023/12/29 10:00:11;;;;;;;8.52;2.30;;;9.40;99.90;;;;;;4883412;29;20052;-83
2023/12/29 10:02:48;;;;;;;9.80;2.53;;;9.40;99.90;;;;;;4884026;29;20139;-84
2023/12/29 10:05:27;;;;;;;10.68;2.13;;;9.30;99.90;;;;;;4882334;29;20067;-83
2023/12/29 10:07:53;;;;;;;8.65;2.35;;;9.90;99.90;;;;;;4870588;29;20051;-84
2023/12/29 10:10:30;;;;;;;8.13;2.05;;;9.30;99.90;;;;;;4882782;29;20040;-84
2023/12/29 10:13:08;;;;;;;9.57;2.25;;;10.00;99.90;;;;;;4880283;29;20041;-85
2023/12/29 10:15:50;;;;;;;11.18;2.00;;;9.80;99.90;;;;;;4880582;29;20067;-84
2023/12/29 10:19:02;;;;;;;6.85;1.85;;;9.60;99.90;;;;;;4881814;29;20045;-85
2023/12/29 10:22:09;;;;;;;6.63;1.92;;;9.10;99.90;;;;;;4865021;29;20045;-85
2023/12/29 10:24:36;;;;;;;8.43;2.00;;;9.20;99.90;;;;;;4898627;23;20105;-85
2023/12/29 10:27:34;;;;;;;6.20;1.85;;;10.30;99.90;;;;;;4882319;29;20520;-85
2023/12/29 10:30:22;;;;;;;12.43;2.30;;;9.20;99.90;;;;;;4883454;29;20485;-84
2023/12/29 10:33:03;;;;;;;8.68;1.80;;;8.50;99.90;;;;;;4883332;29;20470;-85
2023/12/29 10:36:19;;;;;;;10.48;2.28;;;10.10;99.90;;;;;;4880091;29;20049;-85
2023/12/29 10:39:09;;;;;;;9.00;1.63;;;8.60;99.90;;;;;;4827327;29;20134;-86
2023/12/29 10:41:35;;;;;;;3.65;1.13;;;8.40;99.90;;;;;;4844431;29;20085;-85
2023/12/29 10:44:15;;;;;;;5.60;1.17;;;9.50;99.90;;;;;;4841209;29;20140;-86
2023/12/29 10:47:08;;;;;;;2.13;0.77;;;7.90;99.90;;;;;;4826699;29;20145;-86
2023/12/29 10:49:38;;;;;;;4.75;1.33;;;7.30;99.90;;;;;;4839555;29;20076;-86
2023/12/29 10:52:16;;;;;;;2.50;0.90;;;8.50;99.90;;;;;;4865501;29;20052;-85
2023/12/29 10:55:05;;;;;;;3.30;0.90;;;6.70;99.90;;;;;;4880803;29;20075;-85
2023/12/29 10:57:30;;;;;;;4.40;1.10;;;7.20;99.90;;;;;;4886134;23;20072;-84
2023/12/29 10:59:56;;;;;;;5.20;1.10;;;8.10;99.90;;;;;;4882133;29;20087;-84
2023/12/29 11:02:22;;;;;;;8.13;1.47;;;7.90;99.90;;;;;;4878715;29;20080;-83
2023/12/29 11:04:49;;;;;;;4.40;1.30;;;7.20;99.90;;;;;;4880558;29;20072;-83
2023/12/29 11:07:15;;;;;;;7.67;1.40;;;7.10;99.90;;;;;;4882129;29;20050;-83
2023/12/29 11:16:36;;;;;;;5.83;1.57;;;7.60;99.90;;;;;;5405825;23;20087;-85
2023/12/29 11:19:03;;;;;;;8.10;2.03;;;7.80;99.90;;;;;;4901018;29;20112;-86
2023/12/29 11:21:45;;;;;;;7.73;1.80;;;9.70;99.90;;;;;;4899688;29;20055;-86
2023/12/29 11:24:26;;;;;;;7.40;1.60;;;7.50;99.90;;;;;;4918077;29;20059;-85
2023/12/29 11:26:52;;;;;;;7.23;1.80;;;9.50;99.90;;;;;;4896608;29;20133;-85
2023/12/29 11:29:18;;;;;;;6.10;1.47;;;8.30;99.90;;;;;;4898314;29;20063;-86
2023/12/29 11:31:49;;;;;;;7.63;3.07;;;8.60;99.90;;;;;;4882746;29;20040;-88
2023/12/29 11:38:12;;;;;;;9.90;2.00;;;8.70;99.90;;;;;;4905489;29;20104;-86
2023/12/29 11:41:01;;;;;;;8.50;2.13;;;8.10;99.90;;;;;;4885416;29;20502;-87
2023/12/29 11:43:33;;;;;;;10.30;2.00;;;8.70;99.90;;;;;;4882096;29;20048;-84
2023/12/29 11:45:59;;;;;;;11.00;2.33;;;8.90;99.90;;;;;;4882429;29;20052;-87
2023/12/29 11:49:03;;;;;;;9.77;2.90;;;8.70;99.90;;;;;;4882244;29;20115;-88
2023/12/29 11:51:49;;;;;;;13.55;2.70;;;8.80;99.90;;;;;;4881174;29;20055;-88
2023/12/29 11:54:33;;;;;;;12.43;4.60;;;9.10;99.90;;;;;;4882096;29;20056;-87
2023/12/29 11:56:59;;;;;;;12.63;2.70;;;8.40;99.90;;;;;;4897566;29;20053;-87
2023/12/29 11:59:27;;;;;;;10.73;2.80;;;10.40;99.90;;;;;;4887759;24;20057;-88
2023/12/29 12:02:26;;;;;;;8.67;2.60;;;9.40;99.90;;;;;;4881525;29;20055;-88
2023/12/29 12:04:52;;;;;;;11.63;2.37;;;9.60;99.90;;;;;;4880745;29;20465;-88
2023/12/29 12:07:31;;;;;;;11.95;2.75;;;9.00;99.90;;;;;;4881703;29;20049;-86
2023/12/29 12:10:32;;;;;;;17.65;3.63;;;10.10;99.90;;;;;;4881845;29;20091;-85
2023/12/29 12:12:59;;;;;;;13.20;2.70;;;9.20;99.90;;;;;;4882125;29;20056;-86
2023/12/29 12:15:28;;;;;;;10.90;2.70;;;9.30;99.90;;;;;;4882061;29;20139;-86
2023/12/29 12:18:09;;;;;;;10.77;2.57;;;10.10;99.90;;;;;;4881008;29;20056;-85
2023/12/29 12:20:35;;;;;;;14.70;3.10;;;9.40;99.90;;;;;;4879251;29;20061;-85
2023/12/29 12:23:40;;;;;;;7.40;2.00;;;9.20;99.90;;;;;;4881270;29;20048;-85
2023/12/29 12:26:10;;;;;;;14.25;2.72;;;10.10;99.90;;;;;;4880671;29;20402;-87
2023/12/29 12:28:53;;;;;;;9.25;2.20;;;9.50;99.90;;;;;;4878292;29;20052;-86
2023/12/29 12:31:29;;;;;;;9.90;2.20;;;9.60;99.90;;;;;;4881786;29;20040;-87
2023/12/29 12:33:58;;;;;;;7.65;1.90;;;9.60;99.90;;;;;;4873547;29;20513;-86
2023/12/29 12:36:26;;;;;;;10.98;1.98;;;10.60;99.90;;;;;;4863449;29;20052;-91
2023/12/29 12:39:13;;;;;;;8.95;1.60;;;10.80;99.90;;;;;;4863899;29;20523;-86
2023/12/29 12:41:38;;;;;;;10.63;1.95;;;10.30;99.90;;;;;;4847578;29;20193;-86
2023/12/29 12:44:14;;;;;;;17.42;2.53;;;10.80;99.90;;;;;;4861474;29;20045;-85
2023/12/29 12:47:06;;;;;;;8.13;2.28;;;10.70;99.90;;;;;;4861943;29;20502;-86
2023/12/29 12:49:47;;;;;;;9.55;2.05;;;10.80;99.90;;;;;;4879105;29;20049;-85
2023/12/29 12:52:30;;;;;;;9.77;2.20;;;10.70;99.90;;;;;;4880195;29;20076;-85
2023/12/29 12:54:55;;;;;;;11.65;2.60;;;9.70;99.90;;;;;;4874978;29;20099;-85
2023/12/29 12:57:37;;;;;;;15.68;4.70;;;11.30;99.90;;;;;;4897353;29;20052;-85
2023/12/29 13:00:03;;;;;;;16.55;5.60;;;9.60;99.90;;;;;;4877952;29;20080;-84
2023/12/29 13:02:46;;;;;;;15.80;5.38;;;9.60;99.90;;;;;;4879906;29;20044;-85
2023/12/29 13:05:12;;;;;;;10.02;2.88;;;10.70;99.90;;;;;;4880090;29;20063;-85
2023/12/29 13:07:41;;;;;;;7.35;1.92;;;10.40;99.90;;;;;;4878829;29;20057;-85
2023/12/29 13:10:08;;;;;;;10.65;3.05;;;10.80;99.90;;;;;;4879776;29;20489;-84
2023/12/29 13:12:54;;;;;;;11.27;4.50;;;9.60;99.90;;;;;;4878093;29;20055;-85
2023/12/29 13:15:29;;;;;;;11.35;3.40;;;9.70;99.90;;;;;;4878280;29;20052;-85
2023/12/29 13:18:01;;;;;;;11.40;2.67;;;9.60;99.90;;;;;;4877851;29;20081;-84
2023/12/29 13:20:50;;;;;;;8.02;2.17;;;9.70;99.90;;;;;;4880227;29;20525;-84
2023/12/29 13:23:28;;;;;;;23.80;9.82;;;10.10;99.90;;;;;;4877168;29;20049;-85
2023/12/29 13:26:07;;;;;;;7.50;1.67;;;9.90;99.90;;;;;;4877953;29;20092;-85
2023/12/29 13:28:44;;;;;;;;;;;;;;;;;;;;;
2023/12/29 13:31:19;;;;;;;12.85;5.43;;;8.60;99.90;;;;;;4894333;29;20060;-85
2023/12/29 13:40:44;;;;;;;11.75;3.30;;;9.80;99.90;;;;;;5342223;23;20124;-85
2023/12/29 13:43:15;;;;;;;7.88;1.85;;;9.50;99.90;;;;;;4879452;29;20124;-84
2023/12/29 13:45:42;;;;;;;10.70;2.83;;;10.50;99.90;;;;;;4881067;29;20486;-85
2023/12/29 13:48:09;;;;;;;10.88;2.90;;;9.60;99.90;;;;;;4879688;29;20063;-85
2023/12/29 13:50:37;;;;;;;16.67;3.33;;;10.50;99.90;;;;;;4879282;29;20051;-85
2023/12/29 13:53:33;;;;;;;15.35;2.53;;;9.70;99.90;;;;;;4879267;29;20116;-85